sensor_id;sensor_type;location;lat;lon;timestamp;temperature;humidity
32476;DHT22;18929;48.008;10.882;2022-08-19T00:01:49;20.90;99.90
32476;DHT22;18929;48.008;10.882;2022-08-19T00:04:18;20.70;99.90
32476;DHT22;18929;48.008;10.882;2022-08-19T00:06:47;20.90;99.90
32476;DHT22;18929;48.008;10.882;2022-08-19T00:09:16;20.60;99.90
32476;DHT22;18929;48.008;10.882;2022-08-19T00:11:45;20.50;99.90
32476;DHT22;18929;48.008;10.882;2022-08-19T00:14:15;20.50;99.90
32476;DHT22;18929;48.008;10.882;2022-08-19T00:16:44;20.10;99.90
32476;DHT22;18929;48.008;10.882;2022-08-19T00:19:12;20.70;99.90
32476;DHT22;18929;48.008;10.882;2022-08-19T00:21:39;20.90;99.90
32476;DHT22;18929;48.008;10.882;2022-08-19T00:24:07;21.10;99.90
32476;DHT22;18929;48.008;10.882;2022-08-19T00:26:35;21.10;99.90
32476;DHT22;18929;48.008;10.882;2022-08-19T00:29:03;20.60;99.90
32476;DHT22;18929;48.008;10.882;2022-08-19T00:31:32;20.90;99.90
32476;DHT22;18929;48.008;10.882;2022-08-19T00:33:59;20.70;99.90
32476;DHT22;18929;48.008;10.882;2022-08-19T00:36:26;20.50;99.90
32476;DHT22;18929;48.008;10.882;2022-08-19T00:38:54;20.50;99.90
32476;DHT22;18929;48.008;10.882;2022-08-19T00:41:24;20.30;99.90
32476;DHT22;18929;48.008;10.882;2022-08-19T00:43:59;20.40;99.90
32476;DHT22;18929;48.008;10.882;2022-08-19T00:46:28;20.50;99.90
32476;DHT22;18929;48.008;10.882;2022-08-19T00:48:57;20.50;99.90
32476;DHT22;18929;48.008;10.882;2022-08-19T00:51:27;20.30;99.90
32476;DHT22;18929;48.008;10.882;2022-08-19T00:53:56;20.30;99.90
32476;DHT22;18929;48.008;10.882;2022-08-19T00:56:24;20.40;99.90
32476;DHT22;18929;48.008;10.882;2022-08-19T00:58:54;20.30;99.90
32476;DHT22;18929;48.008;10.882;2022-08-19T01:01:23;20.20;99.90
32476;DHT22;18929;48.008;10.882;2022-08-19T01:03:50;20.10;99.90
32476;DHT22;18929;48.008;10.882;2022-08-19T01:06:19;20.10;99.90
32476;DHT22;18929;48.008;10.882;2022-08-19T01:08:47;20.20;99.90
32476;DHT22;18929;48.008;10.882;2022-08-19T01:11:14;20.30;99.90
32476;DHT22;18929;48.008;10.882;2022-08-19T01:13:41;20.30;99.90
32476;DHT22;18929;48.008;10.882;2022-08-19T01:16:10;20.30;99.90
32476;DHT22;18929;48.008;10.882;2022-08-19T01:18:41;20.20;99.90
32476;DHT22;18929;48.008;10.882;2022-08-19T01:21:12;20.40;99.90
32476;DHT22;18929;48.008;10.882;2022-08-19T01:23:45;20.40;99.90
32476;DHT22;18929;48.008;10.882;2022-08-19T01:26:14;20.40;99.90
32476;DHT22;18929;48.008;10.882;2022-08-19T01:28:42;20.20;99.90
32476;DHT22;18929;48.008;10.882;2022-08-19T01:31:12;20.10;99.90
32476;DHT22;18929;48.008;10.882;2022-08-19T01:33:39;20.20;99.90
32476;DHT22;18929;48.008;10.882;2022-08-19T01:36:09;20.10;99.90
32476;DHT22;18929;48.008;10.882;2022-08-19T01:38:40;20.00;99.90
32476;DHT22;18929;48.008;10.882;2022-08-19T01:41:10;20.00;99.90
32476;DHT22;18929;48.008;10.882;2022-08-19T01:43:37;20.20;99.90
32476;DHT22;18929;48.008;10.882;2022-08-19T01:46:05;20.30;99.90
32476;DHT22;18929;48.008;10.882;2022-08-19T01:48:36;20.50;99.90
32476;DHT22;18929;48.008;10.882;2022-08-19T01:51:04;20.60;99.90
32476;DHT22;18929;48.008;10.882;2022-08-19T01:53:32;20.70;99.90
32476;DHT22;18929;48.008;10.882;2022-08-19T01:55:59;20.40;99.90
32476;DHT22;18929;48.008;10.882;2022-08-19T01:58:30;20.30;99.90
32476;DHT22;18929;48.008;10.882;2022-08-19T02:00:59;20.40;99.90
32476;DHT22;18929;48.008;10.882;2022-08-19T02:03:26;20.50;99.90
32476;DHT22;18929;48.008;10.882;2022-08-19T02:05:55;20.60;99.90
32476;DHT22;18929;48.008;10.882;2022-08-19T02:08:23;20.70;99.90
32476;DHT22;18929;48.008;10.882;2022-08-19T02:10:50;20.70;99.90
32476;DHT22;18929;48.008;10.882;2022-08-19T02:13:18;20.50;99.90
32476;DHT22;18929;48.008;10.882;2022-08-19T02:15:46;20.50;99.90
32476;DHT22;18929;48.008;10.882;2022-08-19T02:18:13;20.50;99.90
32476;DHT22;18929;48.008;10.882;2022-08-19T02:20:41;20.50;99.90
32476;DHT22;18929;48.008;10.882;2022-08-19T02:23:10;20.50;99.90
32476;DHT22;18929;48.008;10.882;2022-08-19T02:25:38;20.50;99.90
32476;DHT22;18929;48.008;10.882;2022-08-19T02:28:05;20.60;99.90
32476;DHT22;18929;48.008;10.882;2022-08-19T02:30:33;20.70;99.90
32476;DHT22;18929;48.008;10.882;2022-08-19T02:33:01;20.60;99.90
32476;DHT22;18929;48.008;10.882;2022-08-19T02:35:28;20.40;99.90
32476;DHT22;18929;48.008;10.882;2022-08-19T02:37:55;20.30;99.90
32476;DHT22;18929;48.008;10.882;2022-08-19T02:40:39;20.30;99.90
32476;DHT22;18929;48.008;10.882;2022-08-19T02:43:09;20.20;99.90
32476;DHT22;18929;48.008;10.882;2022-08-19T02:45:38;20.00;99.90
32476;DHT22;18929;48.008;10.882;2022-08-19T02:48:07;20.10;99.90
32476;DHT22;18929;48.008;10.882;2022-08-19T02:50:37;19.90;99.90
32476;DHT22;18929;48.008;10.882;2022-08-19T02:53:04;20.10;99.90
32476;DHT22;18929;48.008;10.882;2022-08-19T02:55:32;20.10;99.90
32476;DHT22;18929;48.008;10.882;2022-08-19T02:58:00;20.10;99.90
32476;DHT22;18929;48.008;10.882;2022-08-19T03:00:27;20.20;99.90
32476;DHT22;18929;48.008;10.882;2022-08-19T03:02:54;20.30;99.90
32476;DHT22;18929;48.008;10.882;2022-08-19T03:05:23;20.40;99.90
32476;DHT22;18929;48.008;10.882;2022-08-19T03:07:50;20.30;99.90
32476;DHT22;18929;48.008;10.882;2022-08-19T03:10:17;20.30;99.90
32476;DHT22;18929;48.008;10.882;2022-08-19T03:12:44;20.20;99.90
32476;DHT22;18929;48.008;10.882;2022-08-19T03:15:12;20.00;99.90
32476;DHT22;18929;48.008;10.882;2022-08-19T03:17:39;19.60;99.90
32476;DHT22;18929;48.008;10.882;2022-08-19T03:20:07;20.00;99.90
32476;DHT22;18929;48.008;10.882;2022-08-19T03:22:35;20.10;99.90
32476;DHT22;18929;48.008;10.882;2022-08-19T03:25:03;20.00;99.90
32476;DHT22;18929;48.008;10.882;2022-08-19T03:27:30;20.00;99.90
32476;DHT22;18929;48.008;10.882;2022-08-19T03:29:57;20.10;99.90
32476;DHT22;18929;48.008;10.882;2022-08-19T03:32:24;20.10;99.90
32476;DHT22;18929;48.008;10.882;2022-08-19T03:34:51;20.30;99.90
32476;DHT22;18929;48.008;10.882;2022-08-19T03:37:18;20.30;99.90
32476;DHT22;18929;48.008;10.882;2022-08-19T03:39:47;20.20;99.90
32476;DHT22;18929;48.008;10.882;2022-08-19T03:42:14;19.80;99.90
32476;DHT22;18929;48.008;10.882;2022-08-19T03:44:42;20.00;99.90
32476;DHT22;18929;48.008;10.882;2022-08-19T03:47:10;20.00;99.90
32476;DHT22;18929;48.008;10.882;2022-08-19T03:49:41;20.00;99.90
32476;DHT22;18929;48.008;10.882;2022-08-19T03:52:08;20.10;99.90
32476;DHT22;18929;48.008;10.882;2022-08-19T03:54:36;20.00;99.90
32476;DHT22;18929;48.008;10.882;2022-08-19T03:57:05;20.10;99.90
32476;DHT22;18929;48.008;10.882;2022-08-19T03:59:35;19.90;99.90
32476;DHT22;18929;48.008;10.882;2022-08-19T04:02:08;19.60;99.90
32476;DHT22;18929;48.008;10.882;2022-08-19T04:04:35;19.70;99.90
32476;DHT22;18929;48.008;10.882;2022-08-19T04:07:03;19.60;99.90
32476;DHT22;18929;48.008;10.882;2022-08-19T04:09:30;19.60;99.90
32476;DHT22;18929;48.008;10.882;2022-08-19T04:11:57;19.60;99.90
32476;DHT22;18929;48.008;10.882;2022-08-19T04:14:27;19.80;99.90
32476;DHT22;18929;48.008;10.882;2022-08-19T04:16:56;20.10;99.90
32476;DHT22;18929;48.008;10.882;2022-08-19T04:19:23;20.00;99.90
32476;DHT22;18929;48.008;10.882;2022-08-19T04:21:54;20.10;99.90
32476;DHT22;18929;48.008;10.882;2022-08-19T04:24:22;20.20;99.90
32476;DHT22;18929;48.008;10.882;2022-08-19T04:26:49;20.40;99.90
32476;DHT22;18929;48.008;10.882;2022-08-19T04:29:20;20.40;99.90
32476;DHT22;18929;48.008;10.882;2022-08-19T04:31:52;20.70;99.90
32476;DHT22;18929;48.008;10.882;2022-08-19T04:34:21;20.70;99.90
32476;DHT22;18929;48.008;10.882;2022-08-19T04:36:50;20.60;99.90
32476;DHT22;18929;48.008;10.882;2022-08-19T04:39:20;20.50;99.90
32476;DHT22;18929;48.008;10.882;2022-08-19T04:41:47;20.40;99.90
32476;DHT22;18929;48.008;10.882;2022-08-19T04:44:41;20.40;99.90
32476;DHT22;18929;48.008;10.882;2022-08-19T04:47:10;20.60;99.90
32476;DHT22;18929;48.008;10.882;2022-08-19T04:49:37;20.60;99.90
32476;DHT22;18929;48.008;10.882;2022-08-19T04:52:04;20.30;99.90
32476;DHT22;18929;48.008;10.882;2022-08-19T04:54:31;20.30;99.90
32476;DHT22;18929;48.008;10.882;2022-08-19T04:56:58;20.40;99.90
32476;DHT22;18929;48.008;10.882;2022-08-19T04:59:25;20.50;99.90
32476;DHT22;18929;48.008;10.882;2022-08-19T05:01:52;20.60;99.90
32476;DHT22;18929;48.008;10.882;2022-08-19T05:04:21;20.50;99.90
32476;DHT22;18929;48.008;10.882;2022-08-19T05:06:49;20.60;99.90
32476;DHT22;18929;48.008;10.882;2022-08-19T05:09:18;20.70;99.90
32476;DHT22;18929;48.008;10.882;2022-08-19T05:11:47;20.50;99.90
32476;DHT22;18929;48.008;10.882;2022-08-19T05:14:15;20.40;99.90
32476;DHT22;18929;48.008;10.882;2022-08-19T05:16:42;20.40;99.90
32476;DHT22;18929;48.008;10.882;2022-08-19T05:19:27;20.30;99.90
32476;DHT22;18929;48.008;10.882;2022-08-19T05:22:11;20.20;99.90
32476;DHT22;18929;48.008;10.882;2022-08-19T05:25:05;20.10;99.90
32476;DHT22;18929;48.008;10.882;2022-08-19T05:27:33;20.20;99.90
32476;DHT22;18929;48.008;10.882;2022-08-19T05:30:00;20.30;99.90
32476;DHT22;18929;48.008;10.882;2022-08-19T05:32:27;20.50;99.90
32476;DHT22;18929;48.008;10.882;2022-08-19T05:34:56;20.60;99.90
32476;DHT22;18929;48.008;10.882;2022-08-19T05:37:23;20.50;99.90
32476;DHT22;18929;48.008;10.882;2022-08-19T05:39:52;20.10;99.90
32476;DHT22;18929;48.008;10.882;2022-08-19T05:42:20;20.20;99.90
32476;DHT22;18929;48.008;10.882;2022-08-19T05:44:47;19.90;99.90
32476;DHT22;18929;48.008;10.882;2022-08-19T05:47:15;20.10;99.90
32476;DHT22;18929;48.008;10.882;2022-08-19T05:49:45;20.30;99.90
32476;DHT22;18929;48.008;10.882;2022-08-19T05:52:14;19.80;99.90
32476;DHT22;18929;48.008;10.882;2022-08-19T05:54:42;19.20;99.90
32476;DHT22;18929;48.008;10.882;2022-08-19T05:57:15;19.40;99.90
32476;DHT22;18929;48.008;10.882;2022-08-19T05:59:43;19.50;99.90
32476;DHT22;18929;48.008;10.882;2022-08-19T06:02:13;19.80;99.90
32476;DHT22;18929;48.008;10.882;2022-08-19T06:04:40;20.00;99.90
32476;DHT22;18929;48.008;10.882;2022-08-19T06:07:09;20.30;99.90
32476;DHT22;18929;48.008;10.882;2022-08-19T06:09:38;20.10;99.90
32476;DHT22;18929;48.008;10.882;2022-08-19T06:12:05;20.40;99.90
32476;DHT22;18929;48.008;10.882;2022-08-19T06:14:34;20.50;99.90
32476;DHT22;18929;48.008;10.882;2022-08-19T06:17:01;20.10;99.90
32476;DHT22;18929;48.008;10.882;2022-08-19T06:19:29;20.30;99.90
32476;DHT22;18929;48.008;10.882;2022-08-19T06:21:58;20.50;99.90
32476;DHT22;18929;48.008;10.882;2022-08-19T06:24:27;20.50;99.90
32476;DHT22;18929;48.008;10.882;2022-08-19T06:26:58;20.40;99.90
32476;DHT22;18929;48.008;10.882;2022-08-19T06:29:26;20.30;99.90
32476;DHT22;18929;48.008;10.882;2022-08-19T06:31:57;20.30;99.90
32476;DHT22;18929;48.008;10.882;2022-08-19T06:34:25;20.30;99.90
32476;DHT22;18929;48.008;10.882;2022-08-19T06:36:53;20.50;99.90
32476;DHT22;18929;48.008;10.882;2022-08-19T06:39:22;20.80;99.90
32476;DHT22;18929;48.008;10.882;2022-08-19T06:42:03;20.80;99.90
32476;DHT22;18929;48.008;10.882;2022-08-19T06:44:37;20.60;99.90
32476;DHT22;18929;48.008;10.882;2022-08-19T06:47:07;20.30;99.90
32476;DHT22;18929;48.008;10.882;2022-08-19T06:49:35;20.10;99.90
32476;DHT22;18929;48.008;10.882;2022-08-19T06:52:04;20.30;99.90
32476;DHT22;18929;48.008;10.882;2022-08-19T06:54:34;20.30;99.90
32476;DHT22;18929;48.008;10.882;2022-08-19T06:57:03;20.20;99.90
32476;DHT22;18929;48.008;10.882;2022-08-19T06:59:31;19.20;99.90
32476;DHT22;18929;48.008;10.882;2022-08-19T07:02:00;19.60;99.90
32476;DHT22;18929;48.008;10.882;2022-08-19T07:04:31;19.70;99.90
32476;DHT22;18929;48.008;10.882;2022-08-19T07:07:01;19.90;99.90
32476;DHT22;18929;48.008;10.882;2022-08-19T07:09:28;19.80;99.90
32476;DHT22;18929;48.008;10.882;2022-08-19T07:11:56;19.80;99.90
32476;DHT22;18929;48.008;10.882;2022-08-19T07:14:26;19.90;99.90
32476;DHT22;18929;48.008;10.882;2022-08-19T07:16:56;19.80;99.90
32476;DHT22;18929;48.008;10.882;2022-08-19T07:19:25;19.80;99.90
32476;DHT22;18929;48.008;10.882;2022-08-19T07:21:54;19.60;99.90
32476;DHT22;18929;48.008;10.882;2022-08-19T07:24:22;19.50;99.90
32476;DHT22;18929;48.008;10.882;2022-08-19T07:26:52;19.50;99.90
32476;DHT22;18929;48.008;10.882;2022-08-19T07:29:20;19.70;99.90
32476;DHT22;18929;48.008;10.882;2022-08-19T07:31:50;19.90;99.90
32476;DHT22;18929;48.008;10.882;2022-08-19T07:34:18;20.10;99.90
32476;DHT22;18929;48.008;10.882;2022-08-19T07:36:45;20.10;99.90
32476;DHT22;18929;48.008;10.882;2022-08-19T07:39:16;20.30;99.90
32476;DHT22;18929;48.008;10.882;2022-08-19T07:41:44;20.10;99.90
32476;DHT22;18929;48.008;10.882;2022-08-19T07:44:12;20.20;99.90
32476;DHT22;18929;48.008;10.882;2022-08-19T07:46:42;20.20;99.90
32476;DHT22;18929;48.008;10.882;2022-08-19T07:49:11;20.20;99.90
32476;DHT22;18929;48.008;10.882;2022-08-19T07:51:43;20.30;99.90
32476;DHT22;18929;48.008;10.882;2022-08-19T07:54:10;20.40;99.90
32476;DHT22;18929;48.008;10.882;2022-08-19T07:56:37;20.50;99.90
32476;DHT22;18929;48.008;10.882;2022-08-19T07:59:05;20.30;99.90
32476;DHT22;18929;48.008;10.882;2022-08-19T08:01:33;20.20;99.90
32476;DHT22;18929;48.008;10.882;2022-08-19T08:04:00;20.20;99.90
32476;DHT22;18929;48.008;10.882;2022-08-19T08:06:46;20.20;99.90
32476;DHT22;18929;48.008;10.882;2022-08-19T08:09:33;20.00;99.90
32476;DHT22;18929;48.008;10.882;2022-08-19T08:12:04;20.20;99.90
32476;DHT22;18929;48.008;10.882;2022-08-19T08:14:35;19.90;99.90
32476;DHT22;18929;48.008;10.882;2022-08-19T08:17:04;20.20;99.90
32476;DHT22;18929;48.008;10.882;2022-08-19T08:19:32;20.20;99.90
32476;DHT22;18929;48.008;10.882;2022-08-19T08:22:01;20.20;99.90
32476;DHT22;18929;48.008;10.882;2022-08-19T08:24:31;20.30;99.90
32476;DHT22;18929;48.008;10.882;2022-08-19T08:27:00;20.40;99.90
32476;DHT22;18929;48.008;10.882;2022-08-19T08:29:30;20.30;99.90
32476;DHT22;18929;48.008;10.882;2022-08-19T08:31:58;20.20;99.90
32476;DHT22;18929;48.008;10.882;2022-08-19T08:34:25;20.30;99.90
32476;DHT22;18929;48.008;10.882;2022-08-19T08:36:52;19.80;99.90
32476;DHT22;18929;48.008;10.882;2022-08-19T08:39:21;20.00;99.90
32476;DHT22;18929;48.008;10.882;2022-08-19T08:41:54;20.20;99.90
32476;DHT22;18929;48.008;10.882;2022-08-19T08:44:43;20.30;99.90
32476;DHT22;18929;48.008;10.882;2022-08-19T08:47:18;20.30;99.90
32476;DHT22;18929;48.008;10.882;2022-08-19T08:49:51;20.40;99.90
32476;DHT22;18929;48.008;10.882;2022-08-19T08:52:22;20.40;99.90
32476;DHT22;18929;48.008;10.882;2022-08-19T08:54:53;20.40;99.90
32476;DHT22;18929;48.008;10.882;2022-08-19T08:57:25;20.10;99.90
32476;DHT22;18929;48.008;10.882;2022-08-19T08:59:54;20.10;99.90
32476;DHT22;18929;48.008;10.882;2022-08-19T09:02:24;20.30;99.90
32476;DHT22;18929;48.008;10.882;2022-08-19T09:04:53;20.40;99.90
32476;DHT22;18929;48.008;10.882;2022-08-19T09:07:38;20.60;99.90
32476;DHT22;18929;48.008;10.882;2022-08-19T09:10:15;20.80;99.90
32476;DHT22;18929;48.008;10.882;2022-08-19T09:12:51;21.00;99.90
32476;DHT22;18929;48.008;10.882;2022-08-19T09:15:27;20.80;99.90
32476;DHT22;18929;48.008;10.882;2022-08-19T09:17:59;20.70;99.90
32476;DHT22;18929;48.008;10.882;2022-08-19T09:20:27;20.80;99.90
32476;DHT22;18929;48.008;10.882;2022-08-19T09:26:20;20.70;99.90
32476;DHT22;18929;48.008;10.882;2022-08-19T09:28:49;20.30;99.90
32476;DHT22;18929;48.008;10.882;2022-08-19T09:31:19;20.20;99.90
32476;DHT22;18929;48.008;10.882;2022-08-19T09:33:47;19.80;99.90
32476;DHT22;18929;48.008;10.882;2022-08-19T09:36:18;20.00;99.90
32476;DHT22;18929;48.008;10.882;2022-08-19T09:38:45;20.20;99.90
32476;DHT22;18929;48.008;10.882;2022-08-19T09:41:14;20.10;99.90
32476;DHT22;18929;48.008;10.882;2022-08-19T09:43:45;20.00;99.90
32476;DHT22;18929;48.008;10.882;2022-08-19T09:46:12;19.90;99.90
32476;DHT22;18929;48.008;10.882;2022-08-19T09:48:40;19.80;99.90
32476;DHT22;18929;48.008;10.882;2022-08-19T09:51:10;20.10;99.90
32476;DHT22;18929;48.008;10.882;2022-08-19T09:53:42;20.20;99.90
32476;DHT22;18929;48.008;10.882;2022-08-19T09:56:09;20.40;99.90
32476;DHT22;18929;48.008;10.882;2022-08-19T09:58:39;19.90;99.90
32476;DHT22;18929;48.008;10.882;2022-08-19T10:01:08;19.90;99.90
32476;DHT22;18929;48.008;10.882;2022-08-19T10:03:36;19.60;99.90
32476;DHT22;18929;48.008;10.882;2022-08-19T10:06:04;20.00;99.90
32476;DHT22;18929;48.008;10.882;2022-08-19T10:08:35;20.10;99.90
32476;DHT22;18929;48.008;10.882;2022-08-19T10:11:04;20.20;99.90
32476;DHT22;18929;48.008;10.882;2022-08-19T10:13:31;20.20;99.90
32476;DHT22;18929;48.008;10.882;2022-08-19T10:16:04;20.10;99.90
32476;DHT22;18929;48.008;10.882;2022-08-19T10:18:34;20.10;99.90
32476;DHT22;18929;48.008;10.882;2022-08-19T10:21:06;20.20;99.90
32476;DHT22;18929;48.008;10.882;2022-08-19T10:23:36;20.30;99.90
32476;DHT22;18929;48.008;10.882;2022-08-19T10:26:03;20.30;99.90
32476;DHT22;18929;48.008;10.882;2022-08-19T10:28:37;20.20;99.90
32476;DHT22;18929;48.008;10.882;2022-08-19T10:31:06;19.50;99.90
32476;DHT22;18929;48.008;10.882;2022-08-19T10:33:39;19.40;99.90
32476;DHT22;18929;48.008;10.882;2022-08-19T10:36:08;19.20;99.90
32476;DHT22;18929;48.008;10.882;2022-08-19T10:38:36;19.60;99.90
32476;DHT22;18929;48.008;10.882;2022-08-19T10:41:08;19.80;99.90
32476;DHT22;18929;48.008;10.882;2022-08-19T10:43:36;19.80;99.90
32476;DHT22;18929;48.008;10.882;2022-08-19T10:49:20;20.00;99.90
32476;DHT22;18929;48.008;10.882;2022-08-19T10:51:48;20.20;99.90
32476;DHT22;18929;48.008;10.882;2022-08-19T10:54:33;20.20;99.90
32476;DHT22;18929;48.008;10.882;2022-08-19T10:57:22;20.30;99.90
32476;DHT22;18929;48.008;10.882;2022-08-19T10:59:54;20.30;99.90
32476;DHT22;18929;48.008;10.882;2022-08-19T11:02:22;20.00;99.90
32476;DHT22;18929;48.008;10.882;2022-08-19T11:04:50;19.50;99.90
32476;DHT22;18929;48.008;10.882;2022-08-19T11:07:17;19.20;99.90
32476;DHT22;18929;48.008;10.882;2022-08-19T11:09:44;19.10;99.90
32476;DHT22;18929;48.008;10.882;2022-08-19T11:12:12;19.30;99.90
32476;DHT22;18929;48.008;10.882;2022-08-19T11:14:40;19.40;99.90
32476;DHT22;18929;48.008;10.882;2022-08-19T11:17:08;19.00;99.90
32476;DHT22;18929;48.008;10.882;2022-08-19T11:19:36;18.70;99.90
32476;DHT22;18929;48.008;10.882;2022-08-19T11:22:07;19.00;99.90
32476;DHT22;18929;48.008;10.882;2022-08-19T11:24:35;19.00;99.90
32476;DHT22;18929;48.008;10.882;2022-08-19T11:27:05;18.80;99.90
32476;DHT22;18929;48.008;10.882;2022-08-19T11:29:33;19.40;99.90
32476;DHT22;18929;48.008;10.882;2022-08-19T11:32:04;19.40;99.90
32476;DHT22;18929;48.008;10.882;2022-08-19T11:34:32;19.00;99.90
32476;DHT22;18929;48.008;10.882;2022-08-19T11:37:05;19.30;99.90
32476;DHT22;18929;48.008;10.882;2022-08-19T11:39:33;19.30;99.90
32476;DHT22;18929;48.008;10.882;2022-08-19T11:42:01;19.50;99.90
32476;DHT22;18929;48.008;10.882;2022-08-19T11:44:28;19.70;99.90
32476;DHT22;18929;48.008;10.882;2022-08-19T11:46:58;19.90;99.90
32476;DHT22;18929;48.008;10.882;2022-08-19T11:49:35;18.90;99.90
32476;DHT22;18929;48.008;10.882;2022-08-19T11:52:04;19.10;99.90
32476;DHT22;18929;48.008;10.882;2022-08-19T11:54:31;19.10;99.90
32476;DHT22;18929;48.008;10.882;2022-08-19T11:56:59;18.70;99.90
32476;DHT22;18929;48.008;10.882;2022-08-19T11:59:26;19.00;99.90
32476;DHT22;18929;48.008;10.882;2022-08-19T12:01:53;19.50;99.90
32476;DHT22;18929;48.008;10.882;2022-08-19T12:04:21;19.70;99.90
32476;DHT22;18929;48.008;10.882;2022-08-19T12:06:48;20.00;99.90
32476;DHT22;18929;48.008;10.882;2022-08-19T12:09:17;19.50;99.90
32476;DHT22;18929;48.008;10.882;2022-08-19T12:11:44;19.70;99.90
32476;DHT22;18929;48.008;10.882;2022-08-19T12:14:12;19.60;99.90
32476;DHT22;18929;48.008;10.882;2022-08-19T12:16:40;19.70;99.90
32476;DHT22;18929;48.008;10.882;2022-08-19T12:19:07;20.00;99.90
32476;DHT22;18929;48.008;10.882;2022-08-19T12:21:35;19.90;99.90
32476;DHT22;18929;48.008;10.882;2022-08-19T12:24:04;19.80;99.90
32476;DHT22;18929;48.008;10.882;2022-08-19T12:26:33;19.60;99.90
32476;DHT22;18929;48.008;10.882;2022-08-19T12:29:00;19.70;99.90
32476;DHT22;18929;48.008;10.882;2022-08-19T12:31:27;19.90;99.90
32476;DHT22;18929;48.008;10.882;2022-08-19T12:33:55;19.70;99.90
32476;DHT22;18929;48.008;10.882;2022-08-19T12:36:23;20.00;99.90
32476;DHT22;18929;48.008;10.882;2022-08-19T12:38:50;20.10;99.90
32476;DHT22;18929;48.008;10.882;2022-08-19T12:41:18;19.90;99.90
32476;DHT22;18929;48.008;10.882;2022-08-19T12:43:49;19.90;99.90
32476;DHT22;18929;48.008;10.882;2022-08-19T12:46:18;19.20;99.90
32476;DHT22;18929;48.008;10.882;2022-08-19T12:48:45;19.30;99.90
32476;DHT22;18929;48.008;10.882;2022-08-19T12:51:16;19.20;99.90
32476;DHT22;18929;48.008;10.882;2022-08-19T12:53:45;19.20;99.90
32476;DHT22;18929;48.008;10.882;2022-08-19T12:56:12;19.50;99.90
32476;DHT22;18929;48.008;10.882;2022-08-19T12:58:40;19.50;99.90
32476;DHT22;18929;48.008;10.882;2022-08-19T13:01:11;19.50;99.90
32476;DHT22;18929;48.008;10.882;2022-08-19T13:03:45;19.70;99.90
32476;DHT22;18929;48.008;10.882;2022-08-19T13:06:13;19.60;99.90
32476;DHT22;18929;48.008;10.882;2022-08-19T13:08:40;19.50;99.90
32476;DHT22;18929;48.008;10.882;2022-08-19T13:11:09;19.70;99.90
32476;DHT22;18929;48.008;10.882;2022-08-19T13:13:38;19.30;99.90
32476;DHT22;18929;48.008;10.882;2022-08-19T13:16:09;19.70;99.90
32476;DHT22;18929;48.008;10.882;2022-08-19T13:18:38;20.00;99.90
32476;DHT22;18929;48.008;10.882;2022-08-19T13:21:07;20.20;99.90
32476;DHT22;18929;48.008;10.882;2022-08-19T13:23:35;20.40;99.90
32476;DHT22;18929;48.008;10.882;2022-08-19T13:26:04;19.90;99.90
32476;DHT22;18929;48.008;10.882;2022-08-19T13:28:32;19.80;99.90
32476;DHT22;18929;48.008;10.882;2022-08-19T13:31:17;19.50;99.90
32476;DHT22;18929;48.008;10.882;2022-08-19T13:34:01;19.30;99.90
32476;DHT22;18929;48.008;10.882;2022-08-19T13:36:29;19.70;99.90
32476;DHT22;18929;48.008;10.882;2022-08-19T13:38:56;19.80;99.90
32476;DHT22;18929;48.008;10.882;2022-08-19T13:41:23;19.60;99.90
32476;DHT22;18929;48.008;10.882;2022-08-19T13:43:50;19.80;99.90
32476;DHT22;18929;48.008;10.882;2022-08-19T13:46:18;20.00;99.90
32476;DHT22;18929;48.008;10.882;2022-08-19T13:48:47;20.10;99.90
32476;DHT22;18929;48.008;10.882;2022-08-19T13:51:14;19.70;99.90
32476;DHT22;18929;48.008;10.882;2022-08-19T13:53:43;19.70;99.90
32476;DHT22;18929;48.008;10.882;2022-08-19T13:56:14;19.90;99.90
32476;DHT22;18929;48.008;10.882;2022-08-19T13:58:41;19.60;99.90
32476;DHT22;18929;48.008;10.882;2022-08-19T14:01:09;19.30;99.90
32476;DHT22;18929;48.008;10.882;2022-08-19T14:03:38;19.50;99.90
32476;DHT22;18929;48.008;10.882;2022-08-19T14:06:08;19.70;99.90
32476;DHT22;18929;48.008;10.882;2022-08-19T14:08:40;20.00;99.90
32476;DHT22;18929;48.008;10.882;2022-08-19T14:11:39;19.80;99.90
32476;DHT22;18929;48.008;10.882;2022-08-19T14:14:12;20.20;99.90
32476;DHT22;18929;48.008;10.882;2022-08-19T14:16:39;20.60;99.90
32476;DHT22;18929;48.008;10.882;2022-08-19T14:19:14;20.30;99.90
32476;DHT22;18929;48.008;10.882;2022-08-19T14:21:56;20.30;99.90
32476;DHT22;18929;48.008;10.882;2022-08-19T14:24:26;20.20;99.90
32476;DHT22;18929;48.008;10.882;2022-08-19T14:26:58;20.70;99.90
32476;DHT22;18929;48.008;10.882;2022-08-19T14:29:39;20.50;99.90
32476;DHT22;18929;48.008;10.882;2022-08-19T14:32:06;20.80;99.90
32476;DHT22;18929;48.008;10.882;2022-08-19T14:34:53;20.70;99.90
32476;DHT22;18929;48.008;10.882;2022-08-19T14:37:21;20.60;99.90
32476;DHT22;18929;48.008;10.882;2022-08-19T14:39:48;20.00;99.90
32476;DHT22;18929;48.008;10.882;2022-08-19T14:42:21;20.40;99.90
32476;DHT22;18929;48.008;10.882;2022-08-19T14:44:56;20.80;99.90
32476;DHT22;18929;48.008;10.882;2022-08-19T14:50:16;20.50;99.90
32476;DHT22;18929;48.008;10.882;2022-08-19T14:52:43;20.60;99.90
32476;DHT22;18929;48.008;10.882;2022-08-19T14:55:17;20.40;99.90
32476;DHT22;18929;48.008;10.882;2022-08-19T14:58:04;21.00;99.90
32476;DHT22;18929;48.008;10.882;2022-08-19T15:00:34;20.90;99.90
32476;DHT22;18929;48.008;10.882;2022-08-19T15:03:05;21.10;99.90
32476;DHT22;18929;48.008;10.882;2022-08-19T15:05:34;21.40;99.90
32476;DHT22;18929;48.008;10.882;2022-08-19T15:08:05;20.60;99.90
32476;DHT22;18929;48.008;10.882;2022-08-19T15:11:12;21.10;99.90
32476;DHT22;18929;48.008;10.882;2022-08-19T15:13:49;21.20;99.90
32476;DHT22;18929;48.008;10.882;2022-08-19T15:16:16;21.20;99.90
32476;DHT22;18929;48.008;10.882;2022-08-19T15:18:45;20.90;99.90
32476;DHT22;18929;48.008;10.882;2022-08-19T15:21:14;20.80;99.90
32476;DHT22;18929;48.008;10.882;2022-08-19T15:23:43;20.80;99.90
32476;DHT22;18929;48.008;10.882;2022-08-19T15:26:10;21.00;99.90
32476;DHT22;18929;48.008;10.882;2022-08-19T15:28:38;21.20;99.90
32476;DHT22;18929;48.008;10.882;2022-08-19T15:31:08;21.20;99.90
32476;DHT22;18929;48.008;10.882;2022-08-19T15:33:37;20.60;99.90
32476;DHT22;18929;48.008;10.882;2022-08-19T15:36:05;20.70;99.90
32476;DHT22;18929;48.008;10.882;2022-08-19T15:38:34;20.40;99.90
32476;DHT22;18929;48.008;10.882;2022-08-19T18:38:34;19.30;99.90